Latest Weather Observations for Rolleston Airport

IDQ60801

Issued at 11:02 pm EST Wednesday 27 July 2016 (issued every 30 minutes, with the page automatically refreshed every 10 minutes)

About weather observations | Map of weather stations | Latest weather observations for QLD | Other Formats
Station Details ID: 035129 Name: ROLLESTON AIRPORT Lat: -24.46 Lon: 148.63 Height: 219.45 m
Data from the previous 72 hours. | See also: Recent months at Rolleston Airport
Date/Time
EST
Temp
°C
App
Temp
°C
Dew
Point
°C
Rel
Hum
%
Delta-T
°C
Wind Press
QNH
hPa
Press
MSL
hPa
Rain since
9am
mm
Dir  Spd
km/h
Gust
km/h
Spd
kts
Gust
kts
27/11:00pm 8.6 6.3 5.0 78 1.6 SE 6 9 3 5 1023.4 1023.3 0.0
27/10:30pm 9.0 7.1 4.8 75 1.9 S 4 6 2 3 1023.4 1023.3 0.0
27/10:00pm 10.0 9.0 5.6 74 2.0 CALM 0 0 0 0 1023.1 1023.0 0.0
27/09:30pm 10.0 8.9 5.2 72 2.2 CALM 0 0 0 0 1023.0 1022.8 0.0
27/09:00pm 10.8 9.7 5.1 68 2.6 CALM 0 0 0 0 1022.8 1022.6 0.0
27/08:30pm 11.7 10.5 4.4 61 3.3 CALM 0 2 0 1 1022.6 1022.4 0.0
27/08:00pm 12.5 10.6 5.0 60 3.5 SSW 4 4 2 2 1022.4 1022.2 0.0
27/07:30pm 12.4 10.2 3.4 54 4.0 SSE 4 4 2 2 1022.1 1021.9 0.0
27/07:00pm 14.1 11.6 3.6 49 4.8 SE 6 6 3 3 1021.6 1021.4 0.0
27/06:30pm 15.3 12.5 3.1 44 5.6 ESE 7 9 4 5 1020.8 1020.7 0.0
27/06:00pm 16.8 13.9 2.8 39 6.4 ESE 7 9 4 5 1020.5 1020.4 0.0
27/05:30pm 17.6 14.8 2.0 35 7.1 ESE 6 7 3 4 1020.5 1020.4 0.0
27/05:00pm 18.9 15.5 1.9 32 7.8 SE 9 13 5 7 1020.3 1020.2 0.0
27/04:30pm 19.5 15.9 2.8 33 7.9 SE 11 13 6 7 1020.1 1020.0 0.0
27/04:00pm 19.6 15.8 2.0 31 8.1 SSE 11 17 6 9 1019.8 1019.7 0.0
27/03:30pm 20.0 16.7 2.4 31 8.2 S 9 15 5 8 1019.7 1019.6 0.0
27/03:00pm 20.3 16.7 3.1 32 8.2 SSW 11 17 6 9 1020.0 1019.9 0.0
27/02:30pm 19.6 16.2 2.0 31 8.2 S 9 17 5 9 1020.1 1020.0 0.0
27/02:00pm 19.8 16.1 2.2 31 8.2 SSW 11 17 6 9 1020.4 1020.3 0.0
27/01:30pm 19.4 15.8 3.2 34 7.7 S 11 17 6 9 1020.4 1020.3 0.0
27/01:00pm 18.8 14.5 3.0 35 7.4 SSW 15 24 8 13 1020.8 1020.7 0.0
27/12:30pm 19.3 15.5 5.7 41 6.8 SSW 15 24 8 13 1021.0 1020.9 0.0
27/12:00pm 18.3 14.8 5.5 43 6.3 S 13 24 7 13 1021.5 1021.3 0.0
27/11:30am 18.3 14.5 5.8 44 6.2 S 15 24 8 13 1021.8 1021.6 0.0
27/11:00am 18.0 14.2 7.4 50 5.4 SSE 17 22 9 12 1022.1 1021.9 0.0
27/10:30am 16.7 13.7 7.6 55 4.6 S 13 19 7 10 1022.7 1022.5 0.0
27/10:00am 15.8 12.3 7.3 57 4.2 SSE 15 24 8 13 1022.6 1022.4 0.0
27/09:30am 14.8 12.7 9.8 72 2.6 S 11 17 6 9 1022.5 1022.3 0.0
27/09:00am 13.7 12.6 10.7 82 1.6 SSE 7 11 4 6 1021.8 1021.6 0.0
27/08:30am 13.1 12.6 10.8 86 1.2 SSE 4 6 2 3 1021.7 1021.5 0.0
27/08:00am 12.8 12.0 10.9 88 1.0 SSW 6 7 3 4 1021.9 1021.7 0.0
27/07:30am 12.6 11.6 10.3 86 1.2 SSE 6 7 3 4 1021.1 1021.0 0.0
27/07:00am 12.7 12.5 10.4 86 1.2 ESE 2 4 1 2 1021.1 1021.0 0.0
27/06:30am 12.4 11.7 10.1 86 1.2 S 4 6 2 3 1020.9 1020.8 0.0
27/06:00am 12.4 11.8 10.3 87 1.1 SSW 4 6 2 3 1020.2 1020.1 0.0
27/05:30am 12.3 11.3 10.4 88 1.0 SE 6 7 3 4 1019.6 1019.5 0.0
27/05:00am 12.5 11.5 10.2 86 1.2 S 6 9 3 5 1019.6 1019.5 0.0
27/04:30am 12.7 11.5 9.5 81 1.6 SW 6 6 3 3 1019.4 1019.3 0.0
27/04:00am 13.1 12.6 9.4 78 1.9 E 2 4 1 2 1018.8 1018.6 0.0
27/03:30am 13.2 12.1 10.0 81 1.7 S 6 7 3 4 1019.1 1018.9 0.0
27/03:00am 13.3 13.3 9.7 79 1.9 CALM 0 2 0 1 1019.2 1019.0 0.0
27/02:30am 13.4 12.6 9.8 79 1.9 SSW 4 6 2 3 1019.2 1019.0 0.0
27/02:00am 13.5 12.6 9.4 76 2.1 S 4 7 2 4 1019.2 1019.0 0.0
27/01:30am 14.0 13.9 9.4 74 2.4 CALM 0 0 0 0 1019.1 1018.9 0.0
27/01:00am 14.1 13.9 9.1 72 2.6 CALM 0 2 0 1 1019.6 1019.5 0.0
27/12:30am 14.3 13.8 9.3 72 2.6 ESE 2 7 1 4 1019.5 1019.4 0.0
27/12:00am 14.2 13.3 9.2 72 2.6 SSE 4 6 2 3 1020.1 1020.0 0.0
 
Date/Time
EST
Temp
°C
App
Temp
°C
Dew
Point
°C
Rel
Hum
%
Delta-T
°C
Wind Press
QNH
hPa
Press
MSL
hPa
Rain since
9am
mm
Dir  Spd
km/h
Gust
km/h
Spd
kts
Gust
kts
26/11:30pm 14.5 13.5 8.7 68 3.0 SW 4 6 2 3 1020.2 1020.1 0.0
26/11:00pm 14.7 13.9 8.2 65 3.3 SW 2 4 1 2 1020.3 1020.2 0.0
26/10:30pm 14.8 13.7 8.3 65 3.3 S 4 6 2 3 1020.2 1020.1 0.0
26/10:00pm 14.9 13.7 7.9 63 3.5 SSE 4 6 2 3 1020.0 1019.9 0.0
26/09:30pm 15.2 13.9 7.5 60 3.9 S 4 6 2 3 1020.2 1020.1 0.0
26/09:00pm 15.1 13.2 7.6 61 3.8 SSE 7 9 4 5 1019.7 1019.6 0.0
26/08:30pm 15.3 13.6 7.6 60 3.9 S 6 9 3 5 1019.8 1019.7 0.0
26/08:00pm 15.6 13.9 7.4 58 4.1 S 6 7 3 4 1019.8 1019.7 0.0
26/07:30pm 15.8 14.0 7.1 56 4.3 S 6 7 3 4 1019.5 1019.4 0.0
26/07:00pm 16.1 14.2 6.8 54 4.6 S 6 7 3 4 1019.3 1019.2 0.0
26/06:30pm 16.5 14.4 6.6 52 4.9 S 7 13 4 7 1018.9 1018.7 0.0
26/06:00pm 16.9 14.8 6.7 51 5.1 S 7 11 4 6 1018.8 1018.6 0.0
26/05:30pm 17.3 15.5 7.1 51 5.1 SSW 6 11 3 6 1018.4 1018.2 0.0
26/05:00pm 17.9 15.6 7.3 50 5.4 SSW 9 13 5 7 1018.1 1017.9 0.0
26/04:30pm 19.1 17.2 6.6 44 6.3 SW 6 9 3 5 1017.7 1017.5 0.0
26/04:00pm 19.3 17.1 6.4 43 6.5 SSW 7 13 4 7 1017.6 1017.4 0.0
26/03:30pm 19.8 17.5 5.5 39 7.1 SSW 7 13 4 7 1017.5 1017.3 0.0
26/03:00pm 20.1 17.4 5.4 38 7.3 S 9 15 5 8 1017.6 1017.4 0.0
26/02:30pm 19.9 17.6 5.5 39 7.2 SSW 7 13 4 7 1017.8 1017.6 0.0
26/02:00pm 19.6 17.4 6.4 42 6.7 S 7 11 4 6 1018.2 1018.0 0.0
26/01:30pm 19.5 17.3 5.2 39 7.1 SE 6 11 3 6 1018.6 1018.4 0.0
26/01:00pm 19.4 17.1 5.8 41 6.8 SSW 7 17 4 9 1018.9 1018.7 0.0
26/12:30pm 18.7 16.2 4.5 39 6.9 S 7 15 4 8 1019.7 1019.6 0.0
26/12:00pm 18.9 16.2 5.4 41 6.6 SSW 9 17 5 9 1020.2 1020.1 0.0
26/11:30am 18.0 15.2 5.2 43 6.2 S 9 17 5 9 1020.5 1020.4 0.0
26/11:00am 17.0 13.8 5.3 46 5.7 S 11 19 6 10 1020.9 1020.8 0.0
26/10:30am 17.1 13.9 5.1 45 5.8 S 11 19 6 10 1021.5 1021.3 0.0
26/10:00am 15.7 11.9 5.9 52 4.8 SSE 15 20 8 11 1021.6 1021.4 0.0
26/09:30am 15.0 12.5 6.6 57 4.1 S 9 15 5 8 1021.8 1021.6 0.0
26/09:00am 14.0 11.9 6.6 61 3.6 S 7 15 4 8 1021.6 1021.4 0.0
26/08:30am 12.6 10.7 6.9 68 2.8 SSE 6 9 3 5 1021.2 1021.1 0.0
26/08:00am 10.7 8.7 6.3 74 2.1 SE 6 9 3 5 1021.0 1020.9 0.0
26/07:30am 9.0 6.9 5.6 79 1.6 SSE 6 9 3 5 1020.8 1020.7 0.0
26/07:00am 6.8 4.5 5.6 92 0.5 SSE 7 9 4 5 1020.5 1020.4 0.0
26/06:30am 5.7 3.4 4.8 94 0.4 SSE 6 6 3 3 1020.2 1020.1 0.0
26/06:00am 6.2 4.0 5.2 93 0.4 S 6 6 3 3 1019.9 1019.8 0.0
26/05:30am 6.7 4.5 5.3 91 0.6 S 6 6 3 3 1019.6 1019.5 0.0
26/05:00am 6.9 5.2 5.7 92 0.5 SSE 4 6 2 3 1019.3 1019.2 0.0
26/04:30am 7.2 5.1 5.8 91 0.6 S 6 6 3 3 1019.1 1018.9 0.0
26/04:00am 6.8 4.4 5.1 89 0.8 S 7 9 4 5 1019.0 1018.8 0.0
26/03:30am 7.1 5.0 5.6 90 0.7 S 6 7 3 4 1019.0 1018.8 0.0
26/03:00am 7.7 6.0 5.8 88 0.9 SSE 4 6 2 3 1019.2 1019.0 0.0
26/02:30am 8.3 6.3 6.9 91 0.7 SSE 7 9 4 5 1019.3 1019.2 0.0
26/02:00am 7.7 5.6 6.0 89 0.8 S 6 7 3 4 1019.6 1019.5 0.0
26/01:30am 8.7 6.8 6.5 86 1.0 S 6 7 3 4 1019.5 1019.4 0.0
26/01:00am 8.4 6.4 6.2 86 1.0 SSE 6 7 3 4 1019.5 1019.4 0.0
26/12:30am 9.1 7.0 6.0 81 1.4 S 6 6 3 3 1019.7 1019.6 0.0
26/12:00am 9.8 9.1 6.9 82 1.4 CALM 0 0 0 0 1019.7 1019.6 0.0
 
Date/Time
EST
Temp
°C
App
Temp
°C
Dew
Point
°C
Rel
Hum
%
Delta-T
°C
Wind Press
QNH
hPa
Press
MSL
hPa
Rain since
9am
mm
Dir  Spd
km/h
Gust
km/h
Spd
kts
Gust
kts
25/11:30pm 9.9 8.2 6.1 77 1.8 SSE 4 6 2 3 1019.6 1019.5 0.0
25/11:00pm 11.5 9.6 6.6 72 2.3 SSE 6 7 3 4 1019.6 1019.5 0.0
25/10:30pm 10.7 8.7 6.1 73 2.2 S 6 7 3 4 1019.6 1019.5 0.0
25/10:00pm 11.6 9.5 5.9 68 2.7 S 6 7 3 4 1019.5 1019.4 0.0
25/09:30pm 12.3 10.1 6.1 66 3.0 SSE 7 7 4 4 1019.4 1019.3 0.0
25/09:00pm 13.9 11.8 6.0 59 3.8 SE 6 7 3 4 1019.4 1019.3 0.0
25/08:30pm 13.2 11.2 6.1 62 3.4 SSE 6 7 3 4 1019.5 1019.4 0.0
25/08:00pm 14.9 12.8 6.0 55 4.3 SE 6 6 3 3 1019.2 1019.0 0.0
25/07:30pm 15.7 13.6 5.6 51 4.9 SE 6 6 3 3 1018.9 1018.7 0.0
25/07:00pm 15.6 13.2 5.2 50 5.0 SE 7 9 4 5 1018.6 1018.4 0.0
25/06:30pm 16.8 14.5 5.7 48 5.4 ESE 7 9 4 5 1018.3 1018.1 0.0
25/06:00pm 17.3 15.0 5.9 47 5.6 SSE 7 9 4 5 1018.1 1017.9 0.0
25/05:30pm 18.8 16.3 4.9 40 6.8 SE 7 7 4 4 1017.8 1017.6 0.0
25/05:00pm 20.4 17.8 4.0 34 7.9 SSE 7 11 4 6 1017.4 1017.2 0.0
25/04:30pm 21.1 17.7 3.8 32 8.4 SSE 11 17 6 9 1017.3 1017.1 0.0
25/04:00pm 21.4 18.0 4.0 32 8.5 SSE 11 19 6 10 1017.2 1017.0 0.0
25/03:30pm 21.3 17.9 4.0 32 8.4 SSE 11 15 6 8 1017.2 1017.0 0.0
25/03:00pm 21.1 18.0 3.8 32 8.4 SE 9 19 5 10 1017.3 1017.1 0.0
25/02:30pm 20.8 16.8 3.1 31 8.5 SSE 13 20 7 11 1017.3 1017.1 0.0
25/02:00pm 20.5 16.6 3.3 32 8.2 SSE 13 20 7 11 1017.7 1017.5 0.0
25/01:30pm 20.0 16.2 3.7 34 7.8 SSE 13 20 7 11 1017.9 1017.7 0.0
25/01:00pm 20.1 16.6 5.4 38 7.3 S 13 20 7 11 1018.4 1018.2 0.0
25/12:30pm 19.4 16.1 4.4 37 7.3 SSE 11 20 6 11 1019.1 1018.9 0.0
25/12:00pm 19.2 15.1 4.2 37 7.2 SSE 15 28 8 15 1019.8 1019.7 0.0
25/11:30am 18.4 14.3 4.2 39 6.8 S 15 22 8 12 1020.1 1020.0 0.0
25/11:00am 18.0 13.1 4.2 40 6.6 SSE 19 30 10 16 1020.6 1020.5 0.0
25/10:30am 17.5 12.6 4.1 41 6.4 SSE 19 28 10 15 1020.8 1020.7 0.0
25/10:00am 16.8 12.2 3.5 41 6.2 SSE 17 28 9 15 1021.1 1021.0 0.0
25/09:30am 15.9 11.8 4.3 46 5.5 SSE 15 26 8 14 1021.2 1021.1 0.0
25/09:00am 15.5 11.3 5.7 52 4.7 SSE 17 24 9 13 1021.1 1021.0 0.0
25/08:30am 14.6 11.3 6.2 57 4.1 SSE 13 20 7 11 1021.0 1020.9 0.0
25/08:00am 13.5 10.7 6.8 64 3.3 SSE 11 13 6 7 1020.7 1020.6 0.0
25/07:30am 12.4 9.5 6.5 67 2.8 SSE 11 15 6 8 1020.5 1020.4 0.0
25/07:00am 11.4 7.8 6.7 73 2.2 SSE 15 17 8 9 1020.0 1019.9 0.0
25/06:30am 12.1 8.5 6.6 69 2.6 SSE 15 19 8 10 1019.6 1019.5 0.0
25/06:00am 13.2 9.1 6.3 63 3.3 SSE 17 20 9 11 1019.2 1019.0 0.0
25/05:30am 13.4 9.8 6.7 64 3.3 SSE 15 22 8 12 1018.9 1018.7 0.0
25/05:00am 12.8 9.7 7.3 69 2.7 SSE 13 15 7 8 1018.2 1018.0 0.0
25/04:30am 12.8 10.5 7.3 69 2.7 SSE 9 11 5 6 1017.6 1017.4 0.0
25/04:00am 12.3 10.5 8.0 75 2.1 S 7 13 4 7 1017.3 1017.1 0.0
25/03:30am 13.0 11.2 7.9 71 2.5 SSE 7 9 4 5 1017.4 1017.2 0.0
25/03:00am 14.5 12.8 8.2 66 3.2 S 7 11 4 6 1017.5 1017.3 0.0
25/02:30am 14.3 12.9 8.9 70 2.8 SSE 6 7 3 4 1017.3 1017.1 0.0
25/02:00am 15.2 13.5 10.0 71 2.7 S 9 11 5 6 1017.3 1017.1 0.0
25/01:30am 14.2 12.8 11.0 81 1.7 SSE 9 11 5 6 1017.1 1016.9 0.0
25/01:00am 14.1 13.0 11.8 86 1.2 SE 9 9 5 5 1017.2 1017.0 0.0
25/12:30am 15.7 15.2 12.6 82 1.7 SSE 7 11 4 6 1017.1 1016.9 0.0
25/12:00am 15.4 15.7 12.3 82 1.7 SE 2 4 1 2 1017.0 1016.8 0.0
 
Date/Time
EST
Temp
°C
App
Temp
°C
Dew
Point
°C
Rel
Hum
%
Delta-T
°C
Wind Press
QNH
hPa
Press
MSL
hPa
Rain since
9am
mm
Dir  Spd
km/h
Gust
km/h
Spd
kts
Gust
kts
24/11:30pm 15.1 14.3 11.1 77 2.2 S 6 13 3 7 1017.0 1016.8 0.0

Other Formats:

Comma delimited format used in spreadsheet applications
http://www.bom.gov.au/fwo/IDQ60801/IDQ60801.94396.axf

JavaScript Object Notation format (JSON) in row-major order
http://www.bom.gov.au/fwo/IDQ60801/IDQ60801.94396.json